Latest Weather Observations for Inglewood

IDQ60801

Issued at 1:05 pm EST Sunday 20 April 2014 (issued every 30 minutes, with the page automatically refreshed every 10 minutes)

About weather observations | Map of weather stations | Latest weather observations for QLD | Other Formats
Station Details ID: 041097 Name: INGLEWOOD FOREST Lat: -28.34 Lon: 150.94 Height: 379.0 m
Data from the previous 72 hours. | See also: Recent months at Inglewood
Date/Time
EST
Temp
°C
App
Temp
°C
Dew
Point
Rel
Hum
%
Delta-T
°C
Wind Press
QNH
hPa
Press
MSL
hPa
Rain
since 9 am
mm
Dir
 
Spd
km/h
Gust
km/h
Spd
kts
Gust
kts
20/01:00pm - - - - - W 13 24 7 13 - - 0.0
20/12:30pm - - - - - W 17 24 9 13 - - 0.0
20/12:00pm - - - - - W 15 24 8 13 - - 0.0
20/11:30am - - - - - SW 11 20 6 11 - - 0.0
20/11:00am - - - - - SW 6 13 3 7 - - 0.0
20/10:30am - - - - - NNW 4 9 2 5 - - 0.0
20/10:00am - - - - - WSW 4 9 2 5 - - 0.0
20/09:30am - - - - - SW 6 9 3 5 - - 0.0
20/09:00am - - - - - ENE 7 11 4 6 - - 0.0
20/08:30am - - - - - NE 7 13 4 7 - - 0.0
20/08:00am - - - - - ENE 9 13 5 7 - - 0.0
20/07:30am - - - - - NE 6 9 3 5 - - 0.0
20/07:00am - - - - - N 9 13 5 7 - - 0.0
20/06:30am - - - - - N 9 13 5 7 - - 0.0
20/06:00am - - - - - NNE 11 15 6 8 - - 0.0
20/05:30am - - - - - NNE 9 11 5 6 - - 0.0
20/05:00am - - - - - S 6 9 3 5 - - 0.0
20/04:30am - - - - - ENE 11 13 6 7 - - 0.0
20/04:00am - - - - - ENE 9 13 5 7 - - 0.0
20/03:30am - - - - - ENE 9 11 5 6 - - 0.0
20/03:00am - - - - - NE 7 9 4 5 - - 0.0
20/02:30am - - - - - ENE 9 13 5 7 - - 0.0
20/02:00am - - - - - ENE 11 13 6 7 - - 0.0
20/01:30am - - - - - E 11 11 6 6 - - 0.0
20/01:00am - - - - - W 4 9 2 5 - - 0.0
20/12:30am - - - - - W 2 9 1 5 - - 0.0
20/12:00am - - - - - ESE 9 11 5 6 - - 0.0
 
Date/Time
EST
Temp
°C
App
Temp
°C
Dew
Point
Rel
Hum
%
Delta-T
°C
Wind Press
QNH
hPa
Press
MSL
hPa
Rain
since 9 am
mm
Dir
 
Spd
km/h
Gust
km/h
Spd
kts
Gust
kts
19/11:30pm - - - - - ESE 11 13 6 7 - - 0.0
19/11:00pm - - - - - SE 11 13 6 7 - - 0.0
19/10:30pm - - - - - SSW 9 11 5 6 - - 0.0
19/10:00pm - - - - - WSW 9 11 5 6 - - 0.0
19/09:30pm - - - - - W 9 11 5 6 - - 0.0
19/09:00pm - - - - - W 9 13 5 7 - - 0.0
19/08:30pm - - - - - NW 11 13 6 7 - - 0.0
19/08:00pm - - - - - NW 13 15 7 8 - - 0.0
19/07:30pm - - - - - NW 13 15 7 8 - - 0.0
19/07:00pm - - - - - NW 13 15 7 8 - - 0.0
19/06:30pm - - - - - NW 13 15 7 8 - - 0.0
19/06:00pm - - - - - WNW 11 13 6 7 - - 0.0
19/05:30pm - - - - - WNW 9 13 5 7 - - 0.0
19/05:00pm - - - - - W 7 11 4 6 - - 0.0
19/04:30pm - - - - - SW 9 20 5 11 - - 0.0
19/04:00pm - - - - - SSW 15 24 8 13 - - 0.0
19/03:30pm - - - - - SW 13 24 7 13 - - 0.0
19/03:00pm - - - - - SW 15 24 8 13 - - 0.0
19/02:30pm - - - - - WSW 15 26 8 14 - - 0.0
19/02:00pm - - - - - SW 17 33 9 18 - - 0.0
19/01:30pm - - - - - W 17 32 9 17 - - 0.0
19/01:00pm - - - - - SW 17 32 9 17 - - 0.0
19/12:30pm - - - - - SW 17 32 9 17 - - 0.0
19/12:00pm - - - - - SSW 15 33 8 18 - - 0.0
19/11:30am - - - - - SW 13 22 7 12 - - 0.0
19/11:00am - - - - - S 11 20 6 11 - - 0.0
19/10:30am - - - - - SSE 11 15 6 8 - - 0.0
19/10:00am - - - - - SSE 11 17 6 9 - - 0.0
19/09:30am - - - - - SSE 11 15 6 8 - - 0.0
19/09:00am - - - - - SE 6 9 3 5 - - 0.0
19/08:30am - - - - - CALM 0 7 0 4 - - 0.0
19/08:00am - - - - - E 2 6 1 3 - - 0.0
19/07:30am - - - - - CALM 0 4 0 2 - - 0.0
19/07:00am - - - - - W 6 7 3 4 - - 0.0
19/06:30am - - - - - WNW 7 11 4 6 - - 0.0
19/06:00am - - - - - WNW 9 9 5 5 - - 0.0
19/05:30am - - - - - WNW 9 11 5 6 - - 0.0
19/05:00am - - - - - WNW 9 11 5 6 - - 0.0
19/04:30am - - - - - WNW 7 9 4 5 - - 0.0
19/04:00am - - - - - NW 11 13 6 7 - - 0.0
19/03:30am - - - - - W 9 13 5 7 - - 0.0
19/03:00am - - - - - W 7 9 4 5 - - 0.0
19/02:30am - - - - - W 9 13 5 7 - - 0.0
19/02:00am - - - - - W 11 13 6 7 - - 0.0
19/01:30am - - - - - SW 9 11 5 6 - - 0.0
19/01:00am - - - - - W 9 11 5 6 - - 0.0
19/12:30am - - - - - WSW 11 13 6 7 - - 0.0
19/12:00am - - - - - W 11 15 6 8 - - 0.0
 
Date/Time
EST
Temp
°C
App
Temp
°C
Dew
Point
Rel
Hum
%
Delta-T
°C
Wind Press
QNH
hPa
Press
MSL
hPa
Rain
since 9 am
mm
Dir
 
Spd
km/h
Gust
km/h
Spd
kts
Gust
kts
18/11:30pm - - - - - SW 11 15 6 8 - - 0.0
18/11:00pm - - - - - SW 11 15 6 8 - - 0.0
18/10:30pm - - - - - WSW 13 17 7 9 - - 0.0
18/10:00pm - - - - - WSW 13 15 7 8 - - 0.0
18/09:30pm - - - - - WSW 13 15 7 8 - - 0.0
18/09:00pm - - - - - WSW 13 15 7 8 - - 0.0
18/08:30pm - - - - - WSW 13 17 7 9 - - 0.0
18/08:00pm - - - - - SW 13 19 7 10 - - 0.0
18/07:30pm - - - - - SW 15 19 8 10 - - 0.0
18/07:00pm - - - - - SW 13 17 7 9 - - 0.0
18/06:30pm - - - - - SW 13 15 7 8 - - 0.0
18/06:00pm - - - - - WSW 13 17 7 9 - - 0.0
18/05:30pm - - - - - SW 11 19 6 10 - - 0.0
18/05:00pm - - - - - SW 15 20 8 11 - - 0.0
18/04:30pm - - - - - SW 15 28 8 15 - - 0.0
18/04:00pm - - - - - SW 13 24 7 13 - - 0.0
18/03:30pm - - - - - SW 15 22 8 12 - - 0.0
18/03:00pm - - - - - SW 15 26 8 14 - - 0.0
18/02:30pm - - - - - SW 15 26 8 14 - - 0.0
18/02:00pm - - - - - SW 13 22 7 12 - - 0.0
18/01:30pm - - - - - SW 17 32 9 17 - - 0.0
18/01:00pm - - - - - W 15 28 8 15 - - 0.0
18/12:30pm - - - - - WSW 13 24 7 13 - - 0.0
18/12:00pm - - - - - SW 13 20 7 11 - - 0.0
18/11:30am - - - - - WSW 11 17 6 9 - - 0.0
18/11:00am - - - - - SSW 9 17 5 9 - - 0.0
18/10:30am - - - - - SW 7 15 4 8 - - 0.0
18/10:00am - - - - - WNW 7 13 4 7 - - 0.0
18/09:30am - - - - - WSW 7 11 4 6 - - 0.0
18/09:00am - - - - - W 7 11 4 6 - - 0.0
18/08:30am - - - - - WNW 4 9 2 5 - - 0.0
18/08:00am - - - - - N 6 7 3 4 - - 0.0
18/07:30am - - - - - N 7 9 4 5 - - 0.0
18/07:00am - - - - - N 7 9 4 5 - - 0.0
18/06:30am - - - - - N 6 7 3 4 - - 0.0
18/06:00am - - - - - E 7 9 4 5 - - 0.0
18/05:30am - - - - - E 9 11 5 6 - - 0.0
18/05:00am - - - - - E 7 9 4 5 - - 0.0
18/04:30am - - - - - E 9 9 5 5 - - 0.0
18/04:00am - - - - - E 11 13 6 7 - - 0.0
18/03:30am - - - - - SSE 7 9 4 5 - - 0.0
18/03:00am - - - - - SW 6 7 3 4 - - 0.0
18/02:30am - - - - - WSW 7 9 4 5 - - 0.0
18/02:00am - - - - - SW 7 9 4 5 - - 0.0
18/01:30am - - - - - S 9 11 5 6 - - 0.0
18/01:00am - - - - - SE 13 15 7 8 - - 0.0
18/12:30am - - - - - SSE 11 15 6 8 - - 0.0
18/12:00am - - - - - SSE 13 15 7 8 - - 0.0
 
Date/Time
EST
Temp
°C
App
Temp
°C
Dew
Point
Rel
Hum
%
Delta-T
°C
Wind Press
QNH
hPa
Press
MSL
hPa
Rain
since 9 am
mm
Dir
 
Spd
km/h
Gust
km/h
Spd
kts
Gust
kts
17/11:30pm - - - - - SSE 15 20 8 11 - - 0.0
17/11:00pm - - - - - S 13 17 7 9 - - 0.0
17/10:30pm - - - - - SW 11 15 6 8 - - 0.0
17/10:00pm - - - - - WSW 11 13 6 7 - - 0.0
17/09:30pm - - - - - WSW 13 15 7 8 - - 0.0
17/09:00pm - - - - - WSW 13 17 7 9 - - 0.0
17/08:30pm - - - - - SW 11 15 6 8 - - 0.0
17/08:00pm - - - - - W 13 15 7 8 - - 0.0
17/07:30pm - - - - - SW 13 17 7 9 - - 0.0
17/07:00pm - - - - - SW 11 15 6 8 - - 0.0
17/06:30pm - - - - - SW 11 13 6 7 - - 0.0
17/06:00pm - - - - - SW 11 15 6 8 - - 0.0
17/05:30pm - - - - - SW 9 13 5 7 - - 0.0
17/05:00pm - - - - - SW 11 15 6 8 - - 0.0
17/04:30pm - - - - - SW 11 17 6 9 - - 0.0
17/04:00pm - - - - - SSW 15 22 8 12 - - 0.0
17/03:30pm - - - - - WSW 15 20 8 11 - - 0.0
17/03:00pm - - - - - WSW 13 20 7 11 - - 0.0
17/02:30pm - - - - - WSW 15 20 8 11 - - 0.0
17/02:00pm - - - - - SW 19 30 10 16 - - 0.0
17/01:30pm - - - - - SW 13 22 7 12 - - 0.0

Other Formats:

Comma delimited format used in spreadsheet applications
http://www.bom.gov.au/fwo/IDQ60801/IDQ60801.95573.axf

JavaScript Object Notation format (JSON) in row-major order
http://www.bom.gov.au/fwo/IDQ60801/IDQ60801.95573.json